createdAt,value
2018-11-03T00:01:59.989Z,23.27
2018-11-03T00:04:28.702Z,23.97
2018-11-03T00:06:57.464Z,23.37
2018-11-03T00:09:26.027Z,23.30
2018-11-03T00:11:54.584Z,24.00
2018-11-03T00:14:23.169Z,21.83
2018-11-03T00:16:51.793Z,22.23
2018-11-03T00:19:20.334Z,22.00
2018-11-03T00:21:48.931Z,21.87
2018-11-03T00:24:17.646Z,21.10
2018-11-03T00:26:46.355Z,22.47
2018-11-03T00:29:15.592Z,21.77
2018-11-03T00:31:44.093Z,20.77
2018-11-03T00:34:12.871Z,21.43
2018-11-03T00:36:41.317Z,20.93
2018-11-03T00:39:11.738Z,21.17
2018-11-03T00:41:40.573Z,22.87
2018-11-03T00:44:09.692Z,22.67
2018-11-03T00:46:38.725Z,23.33
2018-11-03T00:49:07.471Z,22.67
2018-11-03T00:51:36.130Z,23.93
2018-11-03T00:54:04.748Z,23.43
2018-11-03T00:56:33.372Z,23.83
2018-11-03T00:59:02.068Z,23.53
2018-11-03T01:01:30.583Z,23.20
2018-11-03T01:03:59.070Z,23.03
2018-11-03T01:06:28.204Z,23.20
2018-11-03T01:08:56.864Z,23.07
2018-11-03T01:11:25.478Z,22.80
2018-11-03T01:13:54.022Z,24.63
2018-11-03T01:16:22.425Z,23.63
2018-11-03T01:18:51.070Z,25.80
2018-11-03T01:21:19.810Z,25.40
2018-11-03T01:23:48.559Z,23.80
2018-11-03T01:26:17.069Z,24.87
2018-11-03T01:28:45.650Z,26.37
2018-11-03T01:31:14.205Z,25.07
2018-11-03T01:33:42.836Z,27.23
2018-11-03T01:36:11.533Z,26.77
2018-11-03T01:38:40.249Z,26.23
2018-11-03T01:41:08.881Z,29.10
2018-11-03T01:43:37.445Z,29.73
2018-11-03T01:46:06.330Z,29.47
2018-11-03T01:48:35.063Z,29.70
2018-11-03T01:51:03.787Z,32.63
2018-11-03T01:53:32.454Z,31.70
2018-11-03T01:56:00.954Z,33.57
2018-11-03T01:58:29.567Z,34.17
2018-11-03T02:00:58.069Z,32.47
2018-11-03T02:03:26.645Z,33.00
2018-11-03T02:05:55.114Z,34.40
2018-11-03T02:08:23.593Z,33.50
2018-11-03T02:10:52.204Z,32.30
2018-11-03T02:13:20.649Z,33.93
2018-11-03T02:15:49.298Z,31.37
2018-11-03T02:18:17.881Z,30.07
2018-11-03T02:22:15.691Z,30.93
2018-11-03T02:24:44.288Z,30.20
2018-11-03T02:27:12.900Z,32.50
2018-11-03T02:29:41.444Z,34.90
2018-11-03T02:32:09.939Z,32.97
2018-11-03T02:34:38.415Z,35.20
2018-11-03T02:37:06.941Z,32.47
2018-11-03T02:39:35.703Z,34.77
2018-11-03T02:42:04.257Z,34.83
2018-11-03T02:44:33.699Z,36.70
2018-11-03T02:47:02.126Z,35.97
2018-11-03T02:49:30.591Z,36.33
2018-11-03T02:51:59.549Z,35.17
2018-11-03T02:54:28.069Z,35.73
2018-11-03T02:56:56.665Z,36.80
2018-11-03T02:59:25.305Z,38.00
2018-11-03T03:01:53.814Z,36.23
2018-11-03T03:04:22.372Z,33.53
2018-11-03T03:06:50.888Z,34.10
2018-11-03T03:09:19.957Z,35.23
2018-11-03T03:11:48.461Z,35.05
2018-11-03T03:14:17.105Z,38.07
2018-11-03T03:16:45.815Z,40.13
2018-11-03T03:19:14.478Z,41.60
2018-11-03T03:21:43.105Z,41.73
2018-11-03T03:24:11.728Z,38.80
2018-11-03T03:26:40.353Z,41.40
2018-11-03T03:29:10.203Z,42.93
2018-11-03T03:31:38.595Z,41.87
2018-11-03T03:34:07.187Z,43.20
2018-11-03T03:36:35.737Z,45.27
2018-11-03T03:39:05.825Z,45.60
2018-11-03T03:41:34.725Z,42.23
2018-11-03T03:44:03.291Z,42.23
2018-11-03T03:46:32.254Z,43.40
2018-11-03T03:49:00.725Z,44.10
2018-11-03T03:51:29.313Z,41.23
2018-11-03T03:53:58.014Z,43.20
2018-11-03T03:56:26.481Z,42.97
2018-11-03T03:58:54.924Z,43.27
2018-11-03T04:01:23.442Z,44.57
2018-11-03T04:03:52.163Z,42.73
2018-11-03T04:06:21.013Z,44.17
2018-11-03T04:08:49.843Z,45.80
2018-11-03T04:11:18.513Z,45.37
2018-11-03T04:13:47.139Z,46.60
2018-11-03T04:16:15.638Z,46.17
2018-11-03T04:18:44.347Z,44.53
2018-11-03T04:21:16.955Z,48.80
2018-11-03T04:23:45.550Z,52.93
2018-11-03T04:26:14.211Z,49.87
2018-11-03T04:28:42.977Z,49.10
2018-11-03T04:31:11.612Z,47.53
2018-11-03T04:33:40.180Z,46.80
2018-11-03T04:36:08.649Z,45.00
2018-11-03T04:38:37.228Z,46.63
2018-11-03T04:41:06.364Z,45.00
2018-11-03T04:43:34.969Z,43.83
2018-11-03T04:46:03.585Z,44.10
2018-11-03T04:48:32.253Z,45.13
2018-11-03T04:51:00.854Z,44.27
2018-11-03T04:53:29.304Z,43.97
2018-11-03T04:55:57.924Z,43.43
2018-11-03T04:58:26.471Z,45.70
2018-11-03T05:00:55.102Z,45.90
2018-11-03T05:03:23.908Z,46.47
2018-11-03T05:05:52.590Z,47.40
2018-11-03T05:08:21.334Z,49.00
2018-11-03T05:10:49.973Z,50.43
2018-11-03T05:13:18.519Z,51.77
2018-11-03T05:15:47.308Z,49.87
2018-11-03T05:18:15.809Z,50.40
2018-11-03T05:20:44.777Z,47.30
2018-11-03T05:23:13.296Z,49.50
2018-11-03T05:25:42.502Z,47.90
2018-11-03T05:28:11.065Z,46.20
2018-11-03T05:30:40.385Z,49.40
2018-11-03T05:33:08.908Z,47.87
2018-11-03T05:35:37.434Z,50.03
2018-11-03T05:38:07.269Z,50.60
2018-11-03T05:40:35.994Z,52.60
2018-11-03T05:43:04.949Z,50.37
2018-11-03T05:45:33.827Z,50.23
2018-11-03T05:48:02.417Z,50.30
2018-11-03T05:50:31.274Z,50.80
2018-11-03T05:52:59.850Z,50.90
2018-11-03T05:55:28.366Z,51.07
2018-11-03T05:57:57.760Z,51.27
2018-11-03T06:00:28.293Z,50.00
2018-11-03T06:02:58.492Z,51.27
2018-11-03T06:05:27.236Z,51.60
2018-11-03T06:07:56.174Z,51.67
2018-11-03T06:10:24.826Z,53.70
2018-11-03T06:12:53.517Z,49.87
2018-11-03T06:15:23.142Z,51.20
2018-11-03T06:17:51.684Z,47.07
2018-11-03T06:20:20.497Z,48.07
2018-11-03T06:22:48.949Z,47.23
2018-11-03T06:25:18.454Z,47.40
2018-11-03T06:27:47.008Z,46.93
2018-11-03T06:30:15.589Z,46.67
2018-11-03T06:32:44.215Z,46.17
2018-11-03T06:35:12.880Z,46.27
2018-11-03T06:37:41.448Z,46.07
2018-11-03T06:40:10.298Z,47.63
2018-11-03T06:42:39.546Z,46.13
2018-11-03T06:45:09.108Z,42.37
2018-11-03T06:47:37.757Z,44.23
2018-11-03T06:50:07.443Z,41.47
2018-11-03T06:52:36.042Z,43.10
2018-11-03T06:55:04.730Z,43.70
2018-11-03T06:57:33.272Z,43.67
2018-11-03T07:00:01.900Z,45.40
2018-11-03T07:02:30.494Z,46.80
2018-11-03T07:04:59.144Z,46.77
2018-11-03T07:07:27.870Z,43.70
2018-11-03T07:09:56.597Z,43.80
2018-11-03T07:12:25.297Z,43.65
2018-11-03T07:14:54.662Z,43.00
2018-11-03T07:17:23.253Z,43.77
2018-11-03T07:19:51.888Z,44.47
2018-11-03T07:22:20.612Z,42.67
2018-11-03T07:24:49.222Z,44.80
2018-11-03T07:27:17.761Z,45.20
2018-11-03T07:29:46.313Z,45.23
2018-11-03T07:32:14.841Z,43.30
2018-11-03T07:34:43.354Z,45.50
2018-11-03T07:37:11.883Z,46.23
2018-11-03T07:39:40.526Z,44.87
2018-11-03T07:42:09.094Z,46.03
2018-11-03T07:44:37.846Z,46.37
2018-11-03T07:47:06.551Z,46.63
2018-11-03T07:49:35.212Z,47.13
2018-11-03T07:52:03.654Z,45.73
2018-11-03T07:54:32.393Z,42.77
2018-11-03T07:57:00.901Z,44.70
2018-11-03T07:59:29.742Z,45.63
2018-11-03T08:01:58.447Z,44.93
2018-11-03T08:04:27.890Z,43.90
2018-11-03T08:06:56.526Z,42.50
2018-11-03T08:09:25.074Z,40.80
2018-11-03T08:11:53.930Z,42.73
2018-11-03T08:14:22.374Z,40.63
2018-11-03T08:16:50.871Z,39.27
2018-11-03T08:19:19.802Z,41.63
2018-11-03T08:21:48.630Z,41.33
2018-11-03T08:24:17.411Z,40.47
2018-11-03T08:26:45.865Z,37.23
2018-11-03T08:29:14.477Z,36.93
2018-11-03T08:31:43.210Z,35.30
2018-11-03T08:34:11.994Z,36.77
2018-11-03T08:36:41.254Z,34.30
2018-11-03T08:39:11.271Z,34.03
2018-11-03T08:41:39.993Z,33.17
2018-11-03T08:44:08.982Z,32.50
2018-11-03T08:46:37.901Z,32.47
2018-11-03T08:49:06.862Z,32.03
2018-11-03T08:51:35.752Z,29.93
2018-11-03T08:54:04.543Z,30.50
2018-11-03T08:56:33.325Z,29.47
2018-11-03T08:59:01.871Z,28.53
2018-11-03T09:01:30.463Z,30.57
2018-11-03T09:03:59.086Z,31.90
2018-11-03T09:06:27.838Z,32.77
2018-11-03T09:08:56.437Z,31.50
2018-11-03T09:11:25.040Z,30.33
2018-11-03T09:13:53.556Z,30.63
2018-11-03T09:16:22.173Z,29.33
2018-11-03T09:18:51.383Z,28.47
2018-11-03T09:21:19.937Z,29.00
2018-11-03T09:23:48.535Z,28.43
2018-11-03T09:26:17.073Z,27.93
2018-11-03T09:28:45.744Z,27.33
2018-11-03T09:31:14.571Z,26.87
2018-11-03T09:33:43.134Z,26.63
2018-11-03T09:36:11.743Z,27.70
2018-11-03T09:38:40.662Z,26.07
2018-11-03T09:41:09.891Z,26.30
2018-11-03T09:43:38.519Z,26.00
2018-11-03T09:46:07.557Z,23.20
2018-11-03T09:48:36.315Z,24.07
2018-11-03T09:51:05.244Z,24.10
2018-11-03T09:53:33.965Z,24.77
2018-11-03T09:56:02.686Z,23.77
2018-11-03T09:58:31.605Z,24.43
2018-11-03T10:01:00.519Z,24.67
2018-11-03T10:03:29.395Z,23.80
2018-11-03T10:05:58.094Z,23.40
2018-11-03T10:08:27.028Z,23.10
2018-11-03T10:10:55.866Z,22.90
2018-11-03T10:13:24.542Z,23.37
2018-11-03T10:15:53.319Z,23.43
2018-11-03T10:18:22.373Z,23.07
2018-11-03T10:20:51.321Z,21.47
2018-11-03T10:23:20.034Z,20.50
2018-11-03T10:25:48.547Z,19.53
2018-11-03T10:28:17.209Z,20.80
2018-11-03T10:30:45.821Z,20.70
2018-11-03T10:33:14.543Z,20.50
2018-11-03T10:35:43.257Z,17.97
2018-11-03T10:38:11.857Z,18.77
2018-11-03T10:40:40.382Z,18.87
2018-11-03T10:43:09.054Z,21.37
2018-11-03T10:45:37.763Z,20.37
2018-11-03T10:48:06.505Z,18.50
2018-11-03T10:50:35.068Z,18.87
2018-11-03T10:53:03.732Z,19.57
2018-11-03T11:02:25.071Z,18.50
2018-11-03T11:04:58.982Z,19.17
2018-11-03T11:07:32.984Z,20.07
2018-11-03T11:10:06.720Z,19.37
2018-11-03T11:13:41.539Z,20.43
2018-11-03T11:16:11.083Z,19.27
2018-11-03T11:18:39.777Z,17.83
2018-11-03T11:21:09.428Z,20.00
2018-11-03T11:23:38.004Z,17.13
2018-11-03T11:26:06.638Z,17.30
2018-11-03T11:28:35.346Z,16.03
2018-11-03T11:31:04.013Z,16.03
2018-11-03T11:33:32.598Z,16.03
2018-11-03T11:36:01.184Z,16.50
2018-11-03T11:38:29.802Z,16.10
2018-11-03T11:40:58.579Z,17.80
2018-11-03T11:43:27.881Z,17.00
2018-11-03T11:45:56.453Z,16.73
2018-11-03T11:48:25.061Z,16.97
2018-11-03T11:50:53.793Z,16.67
2018-11-03T11:53:22.723Z,17.47
2018-11-03T11:55:51.299Z,17.77
2018-11-03T11:58:19.780Z,16.87
2018-11-03T12:00:48.643Z,18.35
2018-11-03T12:03:17.204Z,17.17
2018-11-03T12:05:45.941Z,17.77
2018-11-03T12:08:15.211Z,18.07
2018-11-03T12:10:43.928Z,18.83
2018-11-03T12:13:12.562Z,17.80
2018-11-03T12:15:41.067Z,18.80
2018-11-03T12:18:09.887Z,18.10
2018-11-03T12:20:38.624Z,19.23
2018-11-03T12:23:07.284Z,18.53
2018-11-03T12:25:36.281Z,19.50
2018-11-03T12:28:05.088Z,18.57
2018-11-03T12:30:33.713Z,18.50
2018-11-03T12:33:02.541Z,18.97
2018-11-03T12:35:31.248Z,18.13
2018-11-03T12:38:00.088Z,17.87
2018-11-03T12:40:28.759Z,18.10
2018-11-03T12:42:57.407Z,18.90
2018-11-03T12:45:25.980Z,20.57
2018-11-03T12:47:54.785Z,22.23
2018-11-03T12:50:23.298Z,20.33
2018-11-03T12:52:51.918Z,20.60
2018-11-03T12:55:20.674Z,23.90
2018-11-03T12:57:49.335Z,21.83
2018-11-03T13:00:18.114Z,21.95
2018-11-03T13:02:48.086Z,21.93
2018-11-03T13:05:16.982Z,23.43
2018-11-03T13:07:46.191Z,23.13
2018-11-03T13:10:14.827Z,22.20
2018-11-03T13:12:43.772Z,22.53
2018-11-03T13:15:13.807Z,23.77
2018-11-03T13:17:42.765Z,22.27
2018-11-03T13:20:12.713Z,22.07
2018-11-03T13:22:41.846Z,20.10
2018-11-03T13:25:11.455Z,21.53
2018-11-03T13:27:40.658Z,22.27
2018-11-03T13:30:11.618Z,22.87
2018-11-03T13:32:40.492Z,22.00
2018-11-03T13:35:10.244Z,22.17
2018-11-03T13:37:39.138Z,21.13
2018-11-03T13:40:09.012Z,23.47
2018-11-03T13:42:37.517Z,21.57
2018-11-03T13:45:07.529Z,22.30
2018-11-03T13:47:36.931Z,22.03
2018-11-03T13:50:10.478Z,23.70
2018-11-03T13:52:39.341Z,23.07
2018-11-03T13:55:08.724Z,22.43
2018-11-03T13:57:37.503Z,21.60
2018-11-03T14:00:06.954Z,23.17
2018-11-03T14:02:35.804Z,23.83
2018-11-03T14:05:04.425Z,24.33
2018-11-03T14:07:33.415Z,25.57
2018-11-03T14:10:03.007Z,26.47
2018-11-03T14:12:31.596Z,25.57
2018-11-03T14:15:00.111Z,27.47
2018-11-03T14:17:28.788Z,28.90
2018-11-03T14:19:57.365Z,28.43
2018-11-03T14:22:25.870Z,28.73
2018-11-03T14:24:54.778Z,28.10
2018-11-03T14:27:23.403Z,29.67
2018-11-03T14:29:51.916Z,31.43
2018-11-03T14:32:20.461Z,29.33
2018-11-03T14:34:49.052Z,28.83
2018-11-03T14:37:17.592Z,29.60
2018-11-03T14:39:46.158Z,28.30
2018-11-03T14:42:14.886Z,29.40
2018-11-03T14:44:43.502Z,30.07
2018-11-03T14:47:12.517Z,33.43
2018-11-03T14:49:41.166Z,32.80
2018-11-03T14:52:10.066Z,33.43
2018-11-03T14:54:38.823Z,34.20
2018-11-03T14:57:07.702Z,33.00
2018-11-03T14:59:36.492Z,33.13
2018-11-03T15:02:05.038Z,32.30
2018-11-03T15:04:33.662Z,33.93
2018-11-03T15:07:02.522Z,34.20
2018-11-03T15:09:31.323Z,36.43
2018-11-03T15:12:00.165Z,35.00
2018-11-03T15:14:28.937Z,34.17
2018-11-03T15:16:57.511Z,36.47
2018-11-03T15:19:26.114Z,36.23
2018-11-03T15:21:54.913Z,36.37
2018-11-03T15:24:23.701Z,36.33
2018-11-03T15:26:52.777Z,37.30
2018-11-03T15:29:21.373Z,37.20
2018-11-03T15:31:49.938Z,39.50
2018-11-03T15:34:18.595Z,46.67
2018-11-03T15:36:47.487Z,56.57
2018-11-03T15:39:16.072Z,56.33
2018-11-03T15:41:44.617Z,55.13
2018-11-03T15:44:13.334Z,43.63
2018-11-03T15:46:42.351Z,43.03
2018-11-03T15:49:11.410Z,41.07
2018-11-03T15:51:40.050Z,40.50
2018-11-03T15:54:09.834Z,41.67
2018-11-03T15:56:38.452Z,42.63
2018-11-03T15:59:07.215Z,43.07
2018-11-03T16:01:36.944Z,43.87
2018-11-03T16:04:05.944Z,43.80
2018-11-03T16:06:34.389Z,43.43
2018-11-03T16:09:03.331Z,45.73
2018-11-03T16:11:32.221Z,44.07
2018-11-03T16:14:00.914Z,43.83
2018-11-03T16:16:29.888Z,44.20
2018-11-03T16:18:58.374Z,43.40
2018-11-03T16:21:27.116Z,43.77
2018-11-03T16:23:55.826Z,44.70
2018-11-03T16:26:24.669Z,44.37
2018-11-03T16:28:53.140Z,44.53
2018-11-03T16:31:21.772Z,45.60
2018-11-03T16:33:50.458Z,44.83
2018-11-03T16:36:19.029Z,48.37
2018-11-03T16:38:47.781Z,47.73
2018-11-03T16:41:16.431Z,46.23
2018-11-03T16:43:45.002Z,47.80
2018-11-03T16:46:13.690Z,47.90
2018-11-03T16:48:42.286Z,47.57
2018-11-03T16:51:11.286Z,47.93
2018-11-03T16:53:40.073Z,46.73
2018-11-03T16:56:10.011Z,46.43
2018-11-03T16:58:38.821Z,47.60
2018-11-03T17:01:07.456Z,53.13
2018-11-03T17:03:36.321Z,50.93
2018-11-03T17:06:05.329Z,49.57
2018-11-03T17:08:34.289Z,51.33
2018-11-03T17:11:02.855Z,49.20
2018-11-03T17:13:31.497Z,48.50
2018-11-03T17:16:00.031Z,48.93
2018-11-03T17:18:28.751Z,49.07
2018-11-03T17:20:57.330Z,49.67
2018-11-03T17:23:26.313Z,50.33
2018-11-03T17:25:54.923Z,51.97
2018-11-03T17:28:23.730Z,53.63
2018-11-03T17:30:52.352Z,51.77
2018-11-03T17:33:20.981Z,49.90
2018-11-03T17:35:49.650Z,47.00
2018-11-03T17:38:18.249Z,47.67
2018-11-03T17:40:46.946Z,47.77
2018-11-03T17:43:15.587Z,50.67
2018-11-03T17:45:44.350Z,49.37
2018-11-03T17:48:12.807Z,48.87
2018-11-03T17:50:41.572Z,49.60
2018-11-03T17:53:10.372Z,45.53
2018-11-03T17:55:38.949Z,45.00
2018-11-03T17:58:07.635Z,45.27
2018-11-03T18:00:36.371Z,46.47
2018-11-03T18:03:05.554Z,46.33
2018-11-03T18:05:34.242Z,44.40
2018-11-03T18:08:02.917Z,43.30
2018-11-03T18:10:31.848Z,42.23
2018-11-03T18:13:00.821Z,42.57
2018-11-03T18:15:29.569Z,42.17
2018-11-03T18:17:58.184Z,42.47
2018-11-03T18:20:26.936Z,42.87
2018-11-03T18:22:55.968Z,44.20
2018-11-03T18:25:24.584Z,43.53
2018-11-03T18:27:53.574Z,43.30
2018-11-03T18:30:22.088Z,45.67
2018-11-03T18:32:51.130Z,45.23
2018-11-03T18:35:19.738Z,44.67
2018-11-03T18:37:48.383Z,49.13
2018-11-03T18:40:17.952Z,46.13
2018-11-03T18:42:46.486Z,45.97
2018-11-03T18:45:15.293Z,47.07
2018-11-03T18:47:43.889Z,45.97
2018-11-03T18:50:14.379Z,45.47
2018-11-03T18:52:43.444Z,46.93
2018-11-03T18:55:13.135Z,44.77
2018-11-03T18:57:42.502Z,45.97
2018-11-03T19:00:11.772Z,44.80
2018-11-03T19:02:41.595Z,44.20
2018-11-03T19:05:10.512Z,44.60
2018-11-03T19:07:39.179Z,42.97
2018-11-03T19:10:08.693Z,43.43
2018-11-03T19:12:37.367Z,44.03
2018-11-03T19:15:06.989Z,43.73
2018-11-03T19:17:36.559Z,45.13
2018-11-03T19:20:06.793Z,49.03
2018-11-03T19:22:35.948Z,50.97
2018-11-03T19:25:04.760Z,46.40
2018-11-03T19:27:33.478Z,47.47
2018-11-03T19:30:02.161Z,46.00
2018-11-03T19:32:30.754Z,45.20
2018-11-03T19:34:59.299Z,44.77
2018-11-03T19:37:28.018Z,44.60
2018-11-03T19:39:56.617Z,47.20
2018-11-03T19:42:25.253Z,44.98
2018-11-03T19:44:53.861Z,43.60
2018-11-03T19:47:22.866Z,44.53
2018-11-03T19:49:51.508Z,44.27
2018-11-03T19:52:20.203Z,45.47
2018-11-03T19:54:48.664Z,43.73
2018-11-03T19:57:17.272Z,45.60
2018-11-03T19:59:46.032Z,44.20
2018-11-03T20:02:14.858Z,44.20
2018-11-03T20:04:43.362Z,43.63
2018-11-03T20:07:12.141Z,45.10
2018-11-03T20:09:40.665Z,44.83
2018-11-03T20:12:09.516Z,45.73
2018-11-03T20:14:37.971Z,44.60
2018-11-03T20:17:06.721Z,45.10
2018-11-03T20:19:35.229Z,44.10
2018-11-03T20:22:04.074Z,44.17
2018-11-03T20:24:32.694Z,44.87
2018-11-03T20:27:01.564Z,44.20
2018-11-03T20:29:30.046Z,43.17
2018-11-03T20:31:58.588Z,44.00
2018-11-03T20:34:27.442Z,45.37
2018-11-03T20:36:56.153Z,44.37
2018-11-03T20:39:25.065Z,45.57
2018-11-03T20:41:53.878Z,46.40
2018-11-03T20:44:22.464Z,46.23
2018-11-03T20:46:51.239Z,44.20
2018-11-03T20:49:19.799Z,45.83
2018-11-03T20:51:48.587Z,44.80
2018-11-03T20:54:18.290Z,45.47
2018-11-03T20:56:46.875Z,44.47
2018-11-03T20:59:15.595Z,45.80
2018-11-03T21:01:44.433Z,45.47
2018-11-03T21:04:13.113Z,45.90
2018-11-03T21:06:41.749Z,44.83
2018-11-03T21:09:11.074Z,46.20
2018-11-03T21:11:39.921Z,43.97
2018-11-03T21:14:08.372Z,45.67
2018-11-03T21:16:37.109Z,44.13
2018-11-03T21:22:38.583Z,44.40
2018-11-03T21:25:07.470Z,45.77
2018-11-03T21:27:36.271Z,45.43
2018-11-03T21:30:06.323Z,45.12
2018-11-03T21:32:34.893Z,45.50
2018-11-03T21:35:04.260Z,46.57
2018-11-03T21:37:32.780Z,44.57
2018-11-03T21:40:01.475Z,45.53
2018-11-03T21:42:30.034Z,45.00
2018-11-03T21:44:58.746Z,45.90
2018-11-03T21:47:27.420Z,46.03
2018-11-03T21:49:56.010Z,43.73
2018-11-03T21:52:24.598Z,44.73
2018-11-03T21:54:53.051Z,44.70
2018-11-03T21:57:23.504Z,44.73
2018-11-03T21:59:52.054Z,43.53
2018-11-03T22:02:20.482Z,44.57
2018-11-03T22:04:50.024Z,44.13
2018-11-03T22:07:18.776Z,44.40
2018-11-03T22:09:47.552Z,43.53
2018-11-03T22:12:16.018Z,43.87
2018-11-03T22:14:45.661Z,45.10
2018-11-03T22:17:14.734Z,44.40
2018-11-03T22:19:43.267Z,43.80
2018-11-03T22:22:11.749Z,42.13
2018-11-03T22:24:40.206Z,43.10
2018-11-03T22:27:08.923Z,40.23
2018-11-03T22:29:37.373Z,41.57
2018-11-03T22:32:06.066Z,41.50
2018-11-03T22:34:35.094Z,41.53
2018-11-03T22:37:03.713Z,41.23
2018-11-03T22:39:32.369Z,42.10
2018-11-03T22:42:00.897Z,41.67
2018-11-03T22:44:30.367Z,41.00
2018-11-03T22:47:00.287Z,42.30
2018-11-03T22:49:28.843Z,41.70
2018-11-03T22:51:57.346Z,40.70
2018-11-03T22:54:25.889Z,42.03
2018-11-03T22:56:54.660Z,41.67
2018-11-03T22:59:23.248Z,41.53
2018-11-03T23:01:51.727Z,41.43
2018-11-03T23:04:20.220Z,41.10
2018-11-03T23:06:48.929Z,41.13
2018-11-03T23:09:17.517Z,39.70
2018-11-03T23:11:46.585Z,40.07
2018-11-03T23:14:15.073Z,39.83
2018-11-03T23:16:43.655Z,38.80
2018-11-03T23:19:12.379Z,39.17
2018-11-03T23:21:40.897Z,40.67
2018-11-03T23:24:09.480Z,41.20
2018-11-03T23:26:38.209Z,38.97
2018-11-03T23:29:06.844Z,39.47
2018-11-03T23:31:35.591Z,39.70
2018-11-03T23:38:40.689Z,39.17
2018-11-03T23:41:10.197Z,38.40
2018-11-03T23:43:38.847Z,39.63
2018-11-03T23:46:07.483Z,39.30
2018-11-03T23:48:35.874Z,41.53
2018-11-03T23:51:04.418Z,39.47
2018-11-03T23:53:32.988Z,40.20
2018-11-03T23:56:03.876Z,39.63
2018-11-03T23:58:32.522Z,40.00
